Pilar, Argentina
Current Conditions -  °F | °C
As of 5:00 PM on Sunday 21 Dec 2014 (Local Time) from SADF Reporting Station
Scattered Clouds Scattered Clouds  
Wind Chill: 73°   Ceiling: Unl
Heat Index: 73°   Visibility: 6mi
Dew Point: 45°   Wind: 12mph
Humidity: 36%   Direction: 180°S
Pressure: 29.77"   Gusts: NA
Location:  34.45°S, 58.9°W
Report Text: SADF 212000Z 18010KT 9999 SCT035 23/07 Q1008
Loading
Personal Weather Stations






























Interactive Weather Map New forecast layout! Learn more

10-Day Weather Forecast

Advertisements
Track Severe Weather on mobile